createdAt,value
2018-04-10T00:00:25.786Z,65.82
2018-04-10T00:02:53.369Z,74.15
2018-04-10T00:05:20.994Z,75.50
2018-04-10T00:07:49.339Z,79.85
2018-04-10T00:10:16.907Z,80.53
2018-04-10T00:12:44.538Z,81.30
2018-04-10T00:15:12.098Z,87.37
2018-04-10T00:17:39.682Z,87.15
2018-04-10T00:20:07.990Z,85.55
2018-04-10T00:22:36.353Z,88.95
2018-04-10T00:25:03.976Z,90.22
2018-04-10T00:27:32.276Z,92.20
2018-04-10T00:29:59.917Z,90.45
2018-04-10T00:32:28.395Z,92.67
2018-04-10T00:34:55.897Z,89.60
2018-04-10T00:37:23.442Z,84.40
2018-04-10T00:39:51.126Z,91.73
2018-04-10T00:42:18.743Z,86.45
2018-04-10T00:44:46.341Z,87.67
2018-04-10T00:47:14.073Z,81.45
2018-04-10T00:49:41.685Z,85.10
2018-04-10T00:52:09.289Z,66.87
2018-04-10T00:54:36.873Z,68.00
2018-04-10T00:57:04.434Z,64.03
2018-04-10T00:59:32.079Z,57.83
2018-04-10T01:01:59.708Z,55.25
2018-04-10T01:04:27.396Z,44.75
2018-04-10T01:06:54.955Z,46.33
2018-04-10T01:09:22.560Z,45.15
2018-04-10T01:11:50.897Z,46.92
2018-04-10T01:14:18.501Z,41.65
2018-04-10T01:16:46.919Z,39.30
2018-04-10T01:19:14.562Z,40.22
2018-04-10T01:21:42.226Z,38.47
2018-04-10T01:24:09.858Z,37.00
2018-04-10T01:26:37.375Z,35.67
2018-04-10T01:29:04.957Z,33.05
2018-04-10T01:31:32.616Z,35.30
2018-04-10T01:34:00.198Z,37.83
2018-04-10T01:36:27.729Z,38.00
2018-04-10T01:38:55.383Z,38.38
2018-04-10T01:41:22.951Z,35.78
2018-04-10T01:43:50.528Z,32.60
2018-04-10T01:46:18.153Z,33.03
2018-04-10T01:48:45.718Z,30.65
2018-04-10T01:51:13.228Z,30.88
2018-04-10T01:53:40.785Z,31.30
2018-04-10T01:56:08.414Z,30.12
2018-04-10T01:58:35.988Z,30.15
2018-04-10T02:01:04.332Z,30.60
2018-04-10T02:03:32.008Z,27.80
2018-04-10T02:05:59.558Z,28.92
2018-04-10T02:08:27.160Z,27.05
2018-04-10T02:10:54.721Z,26.05
2018-04-10T02:13:22.279Z,22.83
2018-04-10T02:15:50.731Z,23.65
2018-04-10T02:18:18.339Z,22.58
2018-04-10T02:20:46.735Z,23.35
2018-04-10T02:23:14.338Z,21.73
2018-04-10T02:25:41.984Z,21.17
2018-04-10T02:28:09.544Z,20.35
2018-04-10T02:30:37.108Z,21.25
2018-04-10T02:33:04.698Z,22.62
2018-04-10T02:35:33.193Z,20.17
2018-04-10T02:38:00.721Z,20.88
2018-04-10T02:40:28.216Z,19.92
2018-04-10T02:42:56.544Z,20.45
2018-04-10T02:45:24.203Z,21.15
2018-04-10T02:47:51.763Z,19.40
2018-04-10T02:50:19.324Z,21.02
2018-04-10T02:52:47.001Z,20.45
2018-04-10T02:55:15.506Z,20.62
2018-04-10T02:57:43.122Z,19.23
2018-04-10T03:00:10.681Z,20.77
2018-04-10T03:02:38.214Z,20.60
2018-04-10T03:05:06.563Z,18.62
2018-04-10T03:07:34.207Z,19.12
2018-04-10T03:10:01.784Z,18.67
2018-04-10T03:12:29.517Z,19.77
2018-04-10T03:14:58.009Z,17.37
2018-04-10T03:17:25.566Z,18.42
2018-04-10T03:19:53.214Z,17.00
2018-04-10T03:22:20.813Z,20.05
2018-04-10T03:24:49.163Z,17.87
2018-04-10T03:27:16.825Z,19.42
2018-04-10T03:29:45.325Z,18.90
2018-04-10T03:32:13.611Z,16.58
2018-04-10T03:34:41.240Z,16.58
2018-04-10T03:37:08.739Z,17.75
2018-04-10T03:39:37.174Z,17.52
2018-04-10T03:42:04.752Z,16.12
2018-04-10T03:44:32.323Z,17.05
2018-04-10T03:47:00.620Z,15.70
2018-04-10T03:49:28.944Z,18.05
2018-04-10T03:51:56.587Z,17.98
2018-04-10T03:54:24.236Z,18.30
2018-04-10T03:56:51.847Z,17.27
2018-04-10T03:59:19.507Z,18.80
2018-04-10T04:01:47.982Z,17.37
2018-04-10T04:04:15.636Z,15.88
2018-04-10T04:06:43.329Z,15.85
2018-04-10T04:09:10.960Z,18.48
2018-04-10T04:11:38.605Z,17.20
2018-04-10T04:14:06.297Z,17.05
2018-04-10T04:16:45.641Z,18.65
2018-04-10T04:19:24.955Z,16.75
2018-04-10T04:25:08.520Z,17.52
2018-04-10T04:27:36.154Z,17.55
2018-04-10T04:30:03.650Z,18.52
2018-04-10T04:32:31.204Z,19.48
2018-04-10T04:34:58.821Z,18.62
2018-04-10T04:37:26.420Z,19.15
2018-04-10T04:39:54.042Z,17.85
2018-04-10T04:42:21.615Z,19.98
2018-04-10T04:44:49.119Z,20.88
2018-04-10T04:47:16.762Z,19.33
2018-04-10T04:49:44.323Z,19.92
2018-04-10T04:52:11.886Z,20.60
2018-04-10T04:54:40.296Z,20.23
2018-04-10T04:57:07.914Z,20.98
2018-04-10T04:59:35.624Z,22.25
2018-04-10T05:02:03.232Z,22.00
2018-04-10T05:04:32.445Z,21.33
2018-04-10T05:07:00.049Z,21.87
2018-04-10T05:09:27.801Z,21.73
2018-04-10T05:11:55.653Z,21.83
2018-04-10T05:14:23.371Z,22.35
2018-04-10T05:16:50.942Z,23.08
2018-04-10T05:19:18.516Z,23.40
2018-04-10T05:21:46.093Z,22.52
2018-04-10T05:24:13.725Z,22.87
2018-04-10T05:26:41.310Z,21.70
2018-04-10T05:29:09.677Z,23.42
2018-04-10T05:31:37.375Z,23.45
2018-04-10T05:34:05.013Z,23.00
2018-04-10T05:36:32.677Z,22.87
2018-04-10T05:39:00.335Z,23.17
2018-04-10T05:41:27.900Z,25.27
2018-04-10T05:43:55.407Z,23.33
2018-04-10T05:46:23.736Z,25.48
2018-04-10T05:48:51.240Z,23.90
2018-04-10T05:51:19.662Z,21.87
2018-04-10T05:53:47.234Z,22.48
2018-04-10T05:56:14.871Z,21.70
2018-04-10T05:58:42.572Z,20.77
2018-04-10T06:01:10.104Z,20.80
2018-04-10T06:03:37.690Z,20.58
2018-04-10T06:06:05.324Z,20.75
2018-04-10T06:08:32.953Z,21.67
2018-04-10T06:11:01.251Z,21.15
2018-04-10T06:13:28.882Z,20.33
2018-04-10T06:15:57.239Z,21.55
2018-04-10T06:18:25.685Z,21.17
2018-04-10T06:20:53.317Z,20.05
2018-04-10T06:23:20.866Z,18.15
2018-04-10T06:25:49.182Z,18.40
2018-04-10T06:28:16.936Z,18.95
2018-04-10T06:30:44.546Z,18.30
2018-04-10T06:33:12.916Z,17.65
2018-04-10T06:35:40.577Z,17.05
2018-04-10T06:38:08.225Z,16.23
2018-04-10T06:40:35.883Z,15.77
2018-04-10T06:43:03.498Z,17.27
2018-04-10T06:45:31.136Z,15.30
2018-04-10T06:48:04.072Z,14.87
2018-04-10T06:50:36.135Z,14.15
2018-04-10T06:53:14.757Z,12.35
2018-04-10T06:55:42.984Z,13.55
2018-04-10T06:58:13.226Z,12.55
2018-04-10T07:00:46.561Z,13.13
2018-04-10T07:03:20.873Z,12.90
2018-04-10T07:05:49.080Z,12.85
2018-04-10T07:08:21.007Z,11.50
2018-04-10T07:10:49.427Z,12.40
2018-04-10T07:13:21.303Z,11.43
2018-04-10T07:18:30.725Z,9.68
2018-04-10T07:21:00.175Z,9.40
2018-04-10T07:23:28.287Z,9.23
2018-04-10T07:25:57.291Z,8.00
2018-04-10T07:28:25.868Z,7.80
2018-04-10T07:30:56.093Z,7.20
2018-04-10T07:33:25.690Z,7.57
2018-04-10T07:36:02.857Z,7.47
2018-04-10T07:38:30.472Z,7.33
2018-04-10T07:40:59.110Z,6.60
2018-04-10T07:43:30.928Z,6.70
2018-04-10T07:45:58.412Z,6.47
2018-04-10T07:48:28.149Z,6.00
2018-04-10T07:50:58.063Z,6.30
2018-04-10T07:53:33.676Z,6.57
2018-04-10T07:56:10.412Z,6.57
2018-04-10T07:58:37.946Z,4.70
2018-04-10T08:01:06.462Z,5.30
2018-04-10T08:03:34.357Z,4.97
2018-04-10T08:06:03.232Z,4.50
2018-04-10T08:08:30.726Z,5.70
2018-04-10T08:10:58.378Z,3.50
2018-04-10T08:13:26.208Z,4.00
2018-04-10T08:15:55.088Z,4.10
2018-04-10T08:18:22.588Z,3.90
2018-04-10T08:20:50.878Z,4.30
2018-04-10T08:23:18.357Z,3.50
2018-04-10T08:25:45.876Z,3.90
2018-04-10T08:28:14.148Z,3.93
2018-04-10T08:30:42.397Z,3.97
2018-04-10T08:33:09.888Z,3.53
2018-04-10T08:35:38.173Z,3.50
2018-04-10T08:38:05.668Z,4.17
2018-04-10T08:40:33.153Z,3.67
2018-04-10T08:43:00.636Z,3.03
2018-04-10T08:45:28.895Z,3.10
2018-04-10T08:47:56.376Z,2.97
2018-04-10T08:50:24.623Z,2.90
2018-04-10T08:52:52.115Z,3.00
2018-04-10T08:55:19.605Z,3.03
2018-04-10T08:57:47.081Z,2.60
2018-04-10T09:00:14.612Z,2.67
2018-04-10T09:02:42.097Z,2.80
2018-04-10T09:05:09.569Z,2.87
2018-04-10T09:07:37.065Z,2.47
2018-04-10T09:10:05.321Z,2.60
2018-04-10T09:12:33.572Z,2.40
2018-04-10T09:15:01.080Z,2.53
2018-04-10T09:17:28.567Z,2.20
2018-04-10T09:19:56.044Z,2.50
2018-04-10T09:22:23.544Z,2.07
2018-04-10T09:24:51.919Z,2.50
2018-04-10T09:27:20.164Z,2.77
2018-04-10T09:29:48.608Z,2.90
2018-04-10T09:32:16.088Z,3.87
2018-04-10T09:34:44.464Z,2.97
2018-04-10T09:37:12.778Z,2.87
2018-04-10T09:39:42.128Z,2.80
2018-04-10T09:42:09.649Z,3.33
2018-04-10T09:44:37.888Z,2.77
2018-04-10T09:47:05.374Z,2.90
2018-04-10T09:49:33.904Z,3.00
2018-04-10T09:52:01.493Z,2.83
2018-04-10T09:54:28.978Z,2.57
2018-04-10T09:56:57.260Z,2.60
2018-04-10T09:59:25.628Z,2.90
2018-04-10T10:01:53.232Z,2.63
2018-04-10T10:04:20.818Z,2.07
2018-04-10T10:06:48.333Z,2.30
2018-04-10T10:09:15.816Z,3.20
2018-04-10T10:11:43.324Z,3.47
2018-04-10T10:14:12.419Z,2.80
2018-04-10T10:16:40.676Z,2.60
2018-04-10T10:19:08.228Z,2.50
2018-04-10T10:21:35.732Z,2.90
2018-04-10T10:24:05.798Z,2.30
2018-04-10T10:26:34.184Z,2.57
2018-04-10T10:29:01.748Z,2.63
2018-04-10T10:31:29.239Z,2.30
2018-04-10T10:33:57.518Z,2.77
2018-04-10T10:36:25.886Z,2.40
2018-04-10T10:38:54.255Z,2.80
2018-04-10T10:41:21.848Z,2.23
2018-04-10T10:43:50.092Z,2.43
2018-04-10T10:46:17.764Z,2.10
2018-04-10T10:48:46.446Z,2.23
2018-04-10T10:51:14.775Z,2.53
2018-04-10T10:53:43.248Z,2.97
2018-04-10T10:56:10.807Z,2.20
2018-04-10T10:58:38.948Z,2.50
2018-04-10T11:01:06.752Z,2.23
2018-04-10T11:03:34.413Z,2.43
2018-04-10T11:06:02.648Z,2.50
2018-04-10T11:08:30.221Z,2.50
2018-04-10T11:10:58.489Z,2.60
2018-04-10T11:13:26.899Z,1.90
2018-04-10T11:15:54.460Z,2.40
2018-04-10T11:18:21.950Z,2.10
2018-04-10T11:20:49.527Z,1.80
2018-04-10T11:23:17.084Z,2.33
2018-04-10T11:25:44.585Z,1.90
2018-04-10T11:28:12.733Z,1.80
2018-04-10T11:30:40.234Z,2.77
2018-04-10T11:33:08.241Z,1.97
2018-04-10T11:35:35.805Z,2.10
2018-04-10T11:38:03.320Z,2.30
2018-04-10T11:40:30.805Z,2.30
2018-04-10T11:42:58.341Z,2.10
2018-04-10T11:45:25.897Z,2.50
2018-04-10T11:47:53.455Z,2.57
2018-04-10T11:50:21.330Z,2.37
2018-04-10T11:52:50.612Z,2.47
2018-04-10T11:55:18.680Z,1.80
2018-04-10T11:57:46.221Z,2.00
2018-04-10T12:00:14.581Z,1.90
2018-04-10T12:02:42.064Z,2.23
2018-04-10T12:05:10.371Z,1.90
2018-04-10T12:07:37.957Z,1.90
2018-04-10T12:10:05.514Z,1.87
2018-04-10T12:12:33.394Z,2.03
2018-04-10T12:15:00.884Z,2.30
2018-04-10T12:17:28.472Z,1.90
2018-04-10T12:19:56.016Z,2.23
2018-04-10T12:22:24.396Z,1.93
2018-04-10T12:24:53.008Z,1.80
2018-04-10T12:27:20.887Z,2.07
2018-04-10T12:29:48.472Z,1.93
2018-04-10T12:32:15.970Z,2.20
2018-04-10T12:34:43.540Z,1.80
2018-04-10T12:37:11.028Z,1.70
2018-04-10T12:39:38.587Z,1.63
2018-04-10T12:42:06.109Z,1.77
2018-04-10T12:44:33.588Z,3.07
2018-04-10T12:47:01.202Z,1.83
2018-04-10T12:49:28.725Z,9.37
2018-04-10T12:51:56.376Z,5.33
2018-04-10T12:54:23.895Z,1.93
2018-04-10T12:56:53.011Z,1.97
2018-04-10T12:59:20.545Z,1.80
2018-04-10T13:01:48.947Z,1.77
2018-04-10T13:04:16.611Z,2.10
2018-04-10T13:06:44.104Z,2.10
2018-04-10T13:09:11.650Z,1.80
2018-04-10T13:11:39.268Z,1.80
2018-04-10T13:14:07.540Z,1.60
2018-04-10T13:16:35.784Z,1.80
2018-04-10T13:19:03.371Z,1.30
2018-04-10T13:21:31.655Z,1.60
2018-04-10T13:23:59.898Z,1.50
2018-04-10T13:26:27.482Z,1.60
2018-04-10T13:28:55.736Z,1.70
2018-04-10T13:31:24.719Z,2.77
2018-04-10T13:33:52.215Z,1.53
2018-04-10T13:36:20.456Z,2.10
2018-04-10T13:38:48.133Z,1.80
2018-04-10T13:41:15.688Z,2.03
2018-04-10T13:43:43.194Z,1.80
2018-04-10T13:46:11.457Z,2.03
2018-04-10T13:48:39.790Z,1.67
2018-04-10T13:51:07.325Z,1.50
2018-04-10T13:53:35.001Z,1.90
2018-04-10T13:56:02.565Z,1.83
2018-04-10T13:58:30.382Z,1.70
2018-04-10T14:00:58.631Z,2.27
2018-04-10T14:03:26.123Z,2.13
2018-04-10T14:05:53.625Z,2.23
2018-04-10T14:08:21.193Z,1.60
2018-04-10T14:10:48.725Z,1.87
2018-04-10T14:13:17.131Z,1.93
2018-04-10T14:15:44.627Z,1.90
2018-04-10T14:18:12.873Z,2.20
2018-04-10T14:20:40.406Z,1.90
2018-04-10T14:23:08.784Z,1.90
2018-04-10T14:25:36.291Z,1.73
2018-04-10T14:28:04.571Z,1.60
2018-04-10T14:30:32.825Z,1.90
2018-04-10T14:33:00.308Z,2.00
2018-04-10T14:35:28.592Z,2.00
2018-04-10T14:37:56.928Z,2.10
2018-04-10T14:40:24.424Z,2.00
2018-04-10T14:42:52.675Z,2.20
2018-04-10T14:45:20.190Z,2.30
2018-04-10T14:47:47.715Z,1.73
2018-04-10T14:50:15.988Z,2.00
2018-04-10T14:52:44.312Z,1.50
2018-04-10T14:55:11.862Z,1.60
2018-04-10T14:57:39.346Z,1.63
2018-04-10T15:00:07.023Z,1.67
2018-04-10T15:02:34.568Z,2.43
2018-04-10T15:05:02.846Z,1.80
2018-04-10T15:07:30.319Z,1.63
2018-04-10T15:09:57.868Z,1.60
2018-04-10T15:12:26.134Z,1.70
2018-04-10T15:14:53.745Z,1.67
2018-04-10T15:17:22.324Z,1.90
2018-04-10T15:19:50.672Z,1.97
2018-04-10T15:22:18.221Z,1.77
2018-04-10T15:24:46.011Z,1.70
2018-04-10T15:27:14.593Z,1.90
2018-04-10T15:29:43.024Z,1.80
2018-04-10T15:32:10.552Z,1.77
2018-04-10T15:34:39.769Z,1.90
2018-04-10T15:37:07.301Z,5.20
2018-04-10T15:39:34.829Z,6.67
2018-04-10T15:42:02.432Z,8.00
2018-04-10T15:44:30.232Z,7.27
2018-04-10T15:46:57.921Z,8.37
2018-04-10T15:49:25.394Z,7.87
2018-04-10T15:51:53.722Z,8.30
2018-04-10T15:54:21.201Z,8.43
2018-04-10T15:56:48.918Z,7.40
2018-04-10T15:59:16.710Z,8.30
2018-04-10T16:01:44.351Z,7.63
2018-04-10T16:04:12.944Z,7.90
2018-04-10T16:06:40.511Z,8.43
2018-04-10T16:09:08.137Z,7.67
2018-04-10T16:11:35.770Z,9.63
2018-04-10T16:14:03.547Z,9.33
2018-04-10T16:16:31.154Z,10.97
2018-04-10T16:18:58.738Z,12.00
2018-04-10T16:21:26.366Z,14.17
2018-04-10T16:23:54.127Z,14.30
2018-04-10T16:26:21.861Z,12.60
2018-04-10T16:28:49.537Z,9.43
2018-04-10T16:31:17.892Z,8.50
2018-04-10T16:33:45.559Z,7.80
2018-04-10T16:36:13.237Z,11.73
2018-04-10T16:38:40.904Z,12.37
2018-04-10T16:41:08.651Z,13.13
2018-04-10T16:43:36.456Z,15.33
2018-04-10T16:46:04.148Z,17.40
2018-04-10T16:48:31.701Z,15.43
2018-04-10T16:50:59.244Z,15.27
2018-04-10T16:53:27.800Z,15.20
2018-04-10T16:55:58.665Z,13.73
2018-04-10T16:58:26.584Z,13.10
2018-04-10T17:00:54.885Z,13.73
2018-04-10T17:03:25.870Z,14.07
2018-04-10T17:05:55.141Z,12.70
2018-04-10T17:08:23.218Z,11.33
2018-04-10T17:10:50.925Z,13.80
2018-04-10T17:13:18.525Z,10.00
2018-04-10T17:15:46.426Z,7.75
2018-04-10T17:18:14.030Z,7.50
2018-04-10T17:20:41.652Z,4.70
2018-04-10T17:23:09.295Z,5.20
2018-04-10T17:25:36.955Z,3.65
2018-04-10T17:28:04.502Z,3.87
2018-04-10T17:30:32.928Z,3.40
2018-04-10T17:33:00.541Z,3.45
2018-04-10T17:35:28.194Z,2.90
2018-04-10T17:37:55.911Z,4.80
2018-04-10T17:40:23.528Z,3.97
2018-04-10T17:42:51.953Z,4.03
2018-04-10T17:45:19.538Z,3.55
2018-04-10T17:47:47.114Z,3.75
2018-04-10T17:55:45.027Z,4.47
2018-04-10T17:58:12.732Z,4.53
2018-04-10T18:00:40.310Z,5.05
2018-04-10T18:03:07.952Z,4.72
2018-04-10T18:05:35.610Z,6.10
2018-04-10T18:08:03.193Z,4.05
2018-04-10T18:10:30.842Z,4.20
2018-04-10T18:12:58.542Z,3.53
2018-04-10T18:15:29.932Z,4.50
2018-04-10T18:18:03.898Z,4.40
2018-04-10T18:20:46.411Z,3.83
2018-04-10T18:23:15.599Z,3.53
2018-04-10T18:25:45.061Z,3.42
2018-04-10T18:28:12.801Z,3.58
2018-04-10T18:30:40.295Z,4.55
2018-04-10T18:33:08.158Z,4.10
2018-04-10T18:35:35.828Z,4.47
2018-04-10T18:38:06.365Z,4.55
2018-04-10T18:40:36.172Z,4.82
2018-04-10T18:43:04.156Z,4.87
2018-04-10T18:45:32.460Z,5.55
2018-04-10T18:48:02.088Z,6.10
2018-04-10T18:50:30.523Z,5.30
2018-04-10T18:53:01.776Z,4.05
2018-04-10T18:55:30.385Z,4.22
2018-04-10T18:57:58.101Z,5.93
2018-04-10T19:00:26.818Z,5.15
2018-04-10T19:02:54.372Z,6.12
2018-04-10T19:05:21.927Z,5.47
2018-04-10T19:07:49.572Z,6.10
2018-04-10T19:10:17.172Z,5.55
2018-04-10T19:12:44.747Z,5.22
2018-04-10T19:15:12.557Z,5.82
2018-04-10T19:17:40.178Z,4.72
2018-04-10T19:20:07.805Z,5.90
2018-04-10T19:22:35.375Z,6.00
2018-04-10T19:25:03.157Z,6.28
2018-04-10T19:27:30.783Z,7.47
2018-04-10T19:29:58.333Z,6.80
2018-04-10T19:32:25.949Z,7.03
2018-04-10T19:34:54.295Z,7.18
2018-04-10T19:37:21.789Z,6.20
2018-04-10T19:39:49.320Z,6.35
2018-04-10T19:42:17.719Z,6.80
2018-04-10T19:44:46.007Z,6.53
2018-04-10T19:47:13.721Z,7.75
2018-04-10T19:49:41.239Z,7.28
2018-04-10T19:52:08.784Z,6.70
2018-04-10T19:54:36.591Z,5.80
2018-04-10T19:57:04.175Z,6.90
2018-04-10T19:59:32.627Z,5.53
2018-04-10T20:02:00.153Z,5.70
2018-04-10T20:04:27.718Z,5.32
2018-04-10T20:06:55.358Z,5.25
2018-04-10T20:09:23.779Z,5.93
2018-04-10T20:11:51.297Z,5.95
2018-04-10T20:14:19.614Z,6.40
2018-04-10T20:16:47.235Z,5.68
2018-04-10T20:19:14.830Z,5.93
2018-04-10T20:21:43.176Z,5.75
2018-04-10T20:24:10.800Z,3.35
2018-04-10T20:26:38.302Z,4.25
2018-04-10T20:29:05.897Z,4.93
2018-04-10T20:31:33.573Z,4.75
2018-04-10T20:34:01.104Z,4.40
2018-04-10T20:36:28.693Z,4.72
2018-04-10T20:38:57.116Z,4.90
2018-04-10T20:41:24.730Z,4.70
2018-04-10T20:43:52.325Z,4.47
2018-04-10T20:46:20.082Z,3.78
2018-04-10T20:48:47.622Z,3.60
2018-04-10T20:51:15.186Z,3.47
2018-04-10T20:53:43.529Z,3.65
2018-04-10T20:56:11.267Z,3.05
2018-04-10T20:58:39.648Z,3.80
2018-04-10T21:01:07.928Z,4.30
2018-04-10T21:03:35.518Z,3.53
2018-04-10T21:06:03.087Z,3.22
2018-04-10T21:08:30.639Z,4.25
2018-04-10T21:10:58.301Z,3.80
2018-04-10T21:13:25.890Z,4.32
2018-04-10T21:15:53.473Z,2.90
2018-04-10T21:18:21.037Z,2.60
2018-04-10T21:20:48.675Z,3.72
2018-04-10T21:23:16.236Z,3.25
2018-04-10T21:25:43.882Z,3.40
2018-04-10T21:28:11.509Z,3.17
2018-04-10T21:30:39.028Z,3.20
2018-04-10T21:33:06.661Z,2.47
2018-04-10T21:35:34.232Z,2.95
2018-04-10T21:38:01.796Z,2.75
2018-04-10T21:40:29.371Z,2.70
2018-04-10T21:43:02.692Z,3.45
2018-04-10T21:45:30.383Z,3.47
2018-04-10T21:47:57.973Z,4.30
2018-04-10T21:50:25.547Z,3.92
2018-04-10T21:52:53.889Z,4.00
2018-04-10T21:55:21.461Z,4.10
2018-04-10T21:57:49.076Z,3.80
2018-04-10T22:00:16.671Z,3.70
2018-04-10T22:02:44.328Z,4.27
2018-04-10T22:05:11.906Z,4.07
2018-04-10T22:07:39.624Z,4.37
2018-04-10T22:10:07.473Z,3.78
2018-04-10T22:12:37.326Z,3.67
2018-04-10T22:15:06.022Z,3.57
2018-04-10T22:17:33.644Z,4.10
2018-04-10T22:20:03.920Z,4.15
2018-04-10T22:22:31.500Z,5.05
2018-04-10T22:24:59.104Z,4.68
2018-04-10T22:27:26.728Z,4.60
2018-04-10T22:29:54.282Z,5.90
2018-04-10T22:32:22.661Z,4.83
2018-04-10T22:34:50.154Z,4.57
2018-04-10T22:37:17.706Z,3.93
2018-04-10T22:39:45.325Z,4.43
2018-04-10T22:42:14.433Z,3.25
2018-04-10T22:44:42.811Z,3.08
2018-04-10T22:47:10.421Z,2.85
2018-04-10T22:49:37.980Z,3.60
2018-04-10T22:52:05.621Z,3.78
2018-04-10T22:54:37.248Z,4.55
2018-04-10T22:57:05.589Z,4.22
2018-04-10T22:59:33.151Z,4.72
2018-04-10T23:02:00.742Z,3.37
2018-04-10T23:04:28.291Z,2.60
2018-04-10T23:06:55.855Z,3.00
2018-04-10T23:09:23.420Z,3.10
2018-04-10T23:11:51.748Z,3.87
2018-04-10T23:14:19.281Z,3.05
2018-04-10T23:16:46.808Z,3.03
2018-04-10T23:19:14.371Z,3.95
2018-04-10T23:21:42.008Z,2.95
2018-04-10T23:24:09.637Z,3.90
2018-04-10T23:26:37.968Z,3.30
2018-04-10T23:29:05.490Z,4.20
2018-04-10T23:31:33.074Z,3.92
2018-04-10T23:34:00.586Z,3.50
2018-04-10T23:36:28.974Z,3.53
2018-04-10T23:38:56.525Z,3.28
2018-04-10T23:41:24.052Z,3.37
2018-04-10T23:43:51.616Z,3.47
2018-04-10T23:46:19.189Z,3.15
2018-04-10T23:48:47.542Z,3.35
2018-04-10T23:51:15.864Z,2.85
2018-04-10T23:53:43.390Z,2.83
2018-04-10T23:56:10.984Z,2.97
2018-04-10T23:58:38.506Z,2.78
